Time;durP1;ratioP1;P1;durP2;ratioP2;P2;SDS_P1;SDS_P2;PMS_P1;PMS_P2;Temp;Humidity;BMP_temperature;BMP_pressure;BME280_temperature;BME280_humidity;BME280_pressure;Samples;Min_cycle;Max_cycle;Signal;HPM_P1;HPM_P2
2021/06/11 01:31:39;;;;;;;12.43;11.10;;;16.40;99.90;;;;;;5259639;27;20157;-60
2021/06/11 01:34:10;;;;;;;13.93;12.33;;;16.40;99.90;;;;;;5262430;27;20110;-60
2021/06/11 01:36:40;;;;;;;14.43;12.87;;;16.40;99.90;;;;;;5257334;27;20116;-59
2021/06/11 01:39:09;;;;;;;15.37;12.90;;;16.40;99.90;;;;;;5257418;27;20122;-59
2021/06/11 01:41:37;;;;;;;17.00;13.47;;;16.40;99.90;;;;;;5263279;27;20118;-59
2021/06/11 01:44:05;;;;;;;17.37;13.30;;;16.40;99.90;;;;;;5263358;27;20141;-59
2021/06/11 01:46:34;;;;;;;18.13;13.33;;;16.40;99.90;;;;;;5258341;27;20119;-59
2021/06/11 01:49:03;;;;;;;16.37;13.03;;;16.40;99.90;;;;;;5260361;27;20107;-59
2021/06/11 01:51:31;;;;;;;16.30;13.13;;;16.30;99.90;;;;;;5257956;27;20154;-60
2021/06/11 01:54:02;;;;;;;15.53;13.93;;;16.30;99.90;;;;;;5260275;27;20111;-59
2021/06/11 01:56:29;;;;;;;16.90;14.77;;;16.30;99.90;;;;;;5259784;27;20435;-59
2021/06/11 01:58:56;;;;;;;18.60;14.47;;;16.20;99.90;;;;;;5261638;27;20149;-59
2021/06/11 02:01:24;;;;;;;17.53;14.27;;;16.30;99.90;;;;;;5258534;27;20130;-61
2021/06/11 02:03:53;;;;;;;18.10;15.17;;;16.20;99.90;;;;;;5260406;27;20147;-59
2021/06/11 02:06:21;;;;;;;20.67;16.67;;;16.20;99.90;;;;;;5258931;27;20142;-59
2021/06/11 02:08:51;;;;;;;18.17;15.57;;;16.10;99.90;;;;;;5258098;27;20531;-60
2021/06/11 02:11:18;;;;;;;17.40;14.43;;;16.10;99.90;;;;;;5260097;27;20107;-59
2021/06/11 02:13:46;;;;;;;18.57;15.07;;;16.10;99.90;;;;;;5258267;27;20145;-60
2021/06/11 02:16:14;;;;;;;17.70;14.57;;;16.00;99.90;;;;;;5257738;27;20104;-59
2021/06/11 02:18:41;;;;;;;19.93;14.03;;;16.00;99.90;;;;;;5257989;27;20111;-58
2021/06/11 02:21:09;;;;;;;17.33;14.27;;;16.00;99.90;;;;;;5258780;27;20516;-59
2021/06/11 02:23:37;;;;;;;17.37;13.40;;;16.00;99.90;;;;;;5257894;27;20107;-60
2021/06/11 02:26:04;;;;;;;16.00;13.80;;;15.90;99.90;;;;;;5259525;27;20108;-59
2021/06/11 02:28:31;;;;;;;18.87;13.17;;;15.90;99.90;;;;;;5258447;27;20126;-59
2021/06/11 02:30:58;;;;;;;19.27;14.97;;;15.90;99.90;;;;;;5259891;27;20532;-62
2021/06/11 02:33:25;;;;;;;21.53;16.50;;;15.80;99.90;;;;;;5258504;27;20165;-58
2021/06/11 02:35:54;;;;;;;21.00;16.40;;;15.80;99.90;;;;;;5260555;27;20103;-59
2021/06/11 02:38:21;;;;;;;23.50;17.77;;;15.80;99.90;;;;;;5259006;27;20373;-59
2021/06/11 02:40:49;;;;;;;22.40;17.50;;;15.70;99.90;;;;;;5260487;27;20126;-60
2021/06/11 02:43:17;;;;;;;21.37;17.10;;;15.70;99.90;;;;;;5261666;27;20125;-61
2021/06/11 02:45:53;;;;;;;24.40;19.60;;;15.70;99.90;;;;;;5263260;27;20103;-59
2021/06/11 02:48:32;;;;;;;27.17;21.57;;;15.70;99.90;;;;;;5258268;27;20185;-59
2021/06/11 02:51:05;;;;;;;27.23;20.77;;;15.60;99.90;;;;;;5257413;27;20149;-60
2021/06/11 02:53:34;;;;;;;30.67;22.40;;;15.70;99.90;;;;;;5257657;27;20148;-60
2021/06/11 02:56:08;;;;;;;29.87;23.30;;;15.60;99.90;;;;;;5257263;27;20107;-58
2021/06/11 02:58:43;;;;;;;29.17;23.67;;;15.60;99.90;;;;;;5258542;27;20121;-57
2021/06/11 03:01:11;;;;;;;30.40;23.07;;;15.60;99.90;;;;;;5262147;27;20166;-59
2021/06/11 03:03:40;;;;;;;27.83;22.17;;;15.60;99.90;;;;;;5261344;27;20523;-60
2021/06/11 03:06:09;;;;;;;24.20;20.53;;;15.60;99.90;;;;;;5261987;27;20107;-61
2021/06/11 03:08:38;;;;;;;29.33;22.00;;;15.60;99.90;;;;;;5257456;27;20170;-62
2021/06/11 03:11:10;;;;;;;24.50;20.33;;;15.60;99.90;;;;;;5257691;27;20119;-60
2021/06/11 03:13:37;;;;;;;28.30;21.23;;;15.60;99.90;;;;;;5261044;27;20107;-62
2021/06/11 03:16:03;;;;;;;23.23;20.77;;;15.50;99.90;;;;;;5262056;27;20420;-59
2021/06/11 03:18:35;;;;;;;25.07;21.43;;;15.50;99.90;;;;;;5259676;27;20107;-62
2021/06/11 03:21:06;;;;;;;27.70;23.50;;;15.50;99.90;;;;;;5259683;27;20562;-60
2021/06/11 03:23:39;;;;;;;28.10;21.80;;;15.50;99.90;;;;;;5262845;27;20118;-60
2021/06/11 03:26:08;;;;;;;24.83;21.10;;;15.50;99.90;;;;;;5258948;27;20138;-59
2021/06/11 03:28:39;;;;;;;28.90;23.07;;;15.50;99.90;;;;;;5259180;27;20111;-60
2021/06/11 03:31:11;;;;;;;24.80;22.20;;;15.50;99.90;;;;;;5259132;27;20153;-59
2021/06/11 03:33:39;;;;;;;26.80;22.37;;;15.50;99.90;;;;;;5257493;27;20115;-58
2021/06/11 03:36:10;;;;;;;28.87;23.33;;;15.50;99.90;;;;;;5258244;27;20119;-58
2021/06/11 03:38:38;;;;;;;29.20;24.60;;;15.50;99.90;;;;;;5257487;27;20115;-59
2021/06/11 03:41:06;;;;;;;27.83;24.00;;;15.50;99.90;;;;;;5257141;27;20436;-59
2021/06/11 03:43:34;;;;;;;32.43;26.77;;;15.60;99.90;;;;;;5262338;27;20176;-60
2021/06/11 03:46:02;;;;;;;27.43;22.57;;;15.60;99.90;;;;;;5263038;27;20108;-63
2021/06/11 03:48:30;;;;;;;26.90;24.00;;;15.60;99.90;;;;;;5259210;27;20168;-59
2021/06/11 03:50:57;;;;;;;26.47;22.83;;;15.60;99.90;;;;;;5259692;27;20142;-62
2021/06/11 03:53:26;;;;;;;29.37;24.20;;;15.60;99.90;;;;;;5261145;27;20119;-60
2021/06/11 03:56:00;;;;;;;27.33;22.97;;;15.70;99.90;;;;;;5260784;27;20149;-59
2021/06/11 03:58:30;;;;;;;28.90;24.37;;;15.70;99.90;;;;;;5260776;27;20153;-59
2021/06/11 04:01:00;;;;;;;29.83;24.23;;;15.80;99.90;;;;;;5261252;27;20160;-59
2021/06/11 04:03:27;;;;;;;30.90;25.10;;;15.80;99.90;;;;;;5258927;27;20107;-60
2021/06/11 04:06:01;;;;;;;33.03;25.57;;;15.80;99.90;;;;;;5261817;27;20122;-58
2021/06/11 04:08:32;;;;;;;29.17;24.23;;;15.90;99.90;;;;;;5258277;27;20447;-57
2021/06/11 04:10:59;;;;;;;30.67;23.03;;;15.90;99.90;;;;;;5259181;27;20305;-58
2021/06/11 04:13:30;;;;;;;29.40;24.13;;;16.00;99.90;;;;;;5263374;27;20124;-59
2021/06/11 04:15:59;;;;;;;27.90;23.13;;;16.00;99.90;;;;;;5260065;27;20160;-59
2021/06/11 04:18:30;;;;;;;26.87;22.40;;;16.10;99.90;;;;;;5258588;27;20174;-58
2021/06/11 04:20:59;;;;;;;27.40;22.27;;;16.10;99.90;;;;;;5260938;27;20111;-59
2021/06/11 04:23:28;;;;;;;27.10;23.13;;;16.20;99.90;;;;;;5258594;27;20118;-59
2021/06/11 04:25:57;;;;;;;26.70;21.37;;;16.40;99.90;;;;;;5262534;27;20149;-60
2021/06/11 04:28:25;;;;;;;26.77;22.27;;;16.60;99.90;;;;;;5262294;27;20165;-59
2021/06/11 04:30:53;;;;;;;29.87;24.17;;;16.80;99.90;;;;;;5263453;27;20127;-58
2021/06/11 04:33:22;;;;;;;34.97;25.67;;;16.90;99.90;;;;;;5261117;27;20213;-60
2021/06/11 04:35:49;;;;;;;30.50;22.73;;;17.00;99.90;;;;;;5260945;27;20613;-58
2021/06/11 04:38:16;;;;;;;34.17;24.97;;;17.00;99.90;;;;;;5260525;27;20467;-58
2021/06/11 04:40:43;;;;;;;30.20;22.93;;;17.00;99.90;;;;;;5263056;27;20115;-60
2021/06/11 04:43:09;;;;;;;26.93;20.80;;;17.00;99.90;;;;;;5260221;27;20146;-59
2021/06/11 04:45:40;;;;;;;34.97;23.77;;;17.00;99.90;;;;;;5261622;27;20107;-59
2021/06/11 04:48:07;;;;;;;32.53;23.40;;;17.20;99.90;;;;;;5258429;27;20114;-58
2021/06/11 04:50:35;;;;;;;32.53;23.00;;;17.20;99.90;;;;;;5261053;27;20107;-58
2021/06/11 04:53:02;;;;;;;30.87;21.90;;;17.20;99.90;;;;;;5262153;27;20142;-58
2021/06/11 04:55:28;;;;;;;28.20;20.43;;;17.30;99.90;;;;;;5263599;27;20107;-61
2021/06/11 04:57:56;;;;;;;25.43;18.83;;;17.30;99.90;;;;;;5263042;27;20133;-58
2021/06/11 05:00:24;;;;;;;29.43;20.43;;;17.30;99.90;;;;;;5261404;27;20133;-58
2021/06/11 05:02:50;;;;;;;28.00;19.63;;;17.30;99.90;;;;;;5263943;27;20183;-61
2021/06/11 05:05:16;;;;;;;29.07;20.77;;;17.30;99.90;;;;;;5261180;27;20165;-59
2021/06/11 05:07:44;;;;;;;24.93;20.00;;;17.30;99.90;;;;;;5260560;27;20126;-57
2021/06/11 05:10:12;;;;;;;28.57;20.63;;;17.20;99.90;;;;;;5258238;27;20107;-59
2021/06/11 05:12:38;;;;;;;28.70;18.97;;;17.20;99.90;;;;;;5259335;27;20107;-59
2021/06/11 05:15:06;;;;;;;31.60;20.40;;;17.30;99.90;;;;;;5263887;27;20107;-59
2021/06/11 05:17:32;;;;;;;31.07;21.43;;;17.30;99.90;;;;;;5260428;27;20145;-61
2021/06/11 05:19:59;;;;;;;35.53;22.00;;;17.40;99.90;;;;;;5257815;27;20181;-59
2021/06/11 05:22:25;;;;;;;33.10;23.60;;;17.40;99.90;;;;;;5257777;27;20107;-59
2021/06/11 05:24:53;;;;;;;35.40;23.43;;;17.50;99.90;;;;;;5258315;27;20165;-59
2021/06/11 05:27:19;;;;;;;34.10;23.07;;;17.40;99.90;;;;;;5257525;27;20173;-61
2021/06/11 05:29:45;;;;;;;33.10;23.07;;;17.40;99.90;;;;;;5259822;27;20130;-61
2021/06/11 05:32:12;;;;;;;33.63;23.77;;;17.60;99.90;;;;;;5262797;27;20159;-62
2021/06/11 05:34:38;;;;;;;36.50;24.13;;;17.70;99.90;;;;;;5258726;27;20213;-61
2021/06/11 05:37:05;;;;;;;38.40;24.50;;;17.90;99.90;;;;;;5257708;27;20199;-61
2021/06/11 05:39:32;;;;;;;40.00;27.03;;;17.90;99.90;;;;;;5259882;27;20437;-59
2021/06/11 05:41:59;;;;;;;40.13;26.07;;;17.80;99.90;;;;;;5257958;27;20107;-59
2021/06/11 05:44:26;;;;;;;47.27;29.23;;;17.70;99.90;;;;;;5261343;27;20107;-59
2021/06/11 05:46:52;;;;;;;45.97;27.70;;;17.60;99.90;;;;;;5261264;27;20119;-58
2021/06/11 05:49:19;;;;;;;45.83;27.63;;;17.70;99.90;;;;;;5258520;27;20107;-58
2021/06/11 05:51:46;;;;;;;55.67;31.97;;;17.80;99.90;;;;;;5259816;27;20490;-59
2021/06/11 05:54:12;;;;;;;52.63;29.63;;;17.90;99.90;;;;;;5261923;27;20554;-61
2021/06/11 05:56:40;;;;;;;61.97;33.73;;;18.10;99.90;;;;;;5260640;27;20107;-60
2021/06/11 05:59:08;;;;;;;58.00;33.70;;;18.10;99.90;;;;;;5258675;27;20245;-59
2021/06/11 06:01:34;;;;;;;63.90;33.70;;;18.10;99.90;;;;;;5258313;27;20112;-59
2021/06/11 06:04:00;;;;;;;55.50;32.63;;;18.20;99.90;;;;;;5261609;27;20111;-59
2021/06/11 06:06:29;;;;;;;57.60;32.77;;;18.30;99.90;;;;;;5260560;27;20597;-59
2021/06/11 06:08:55;;;;;;;53.13;31.23;;;18.40;99.90;;;;;;5257691;27;20134;-59
2021/06/11 06:11:22;;;;;;;58.67;32.23;;;18.50;99.90;;;;;;5260039;27;20165;-58
2021/06/11 06:13:48;;;;;;;54.97;31.37;;;18.70;99.90;;;;;;5258207;27;20118;-59
2021/06/11 06:16:16;;;;;;;58.07;33.63;;;18.80;99.90;;;;;;5262004;27;20107;-59
2021/06/11 06:18:43;;;;;;;60.73;34.53;;;18.90;99.90;;;;;;5259633;27;20546;-61
2021/06/11 06:21:11;;;;;;;53.97;32.83;;;18.90;99.90;;;;;;5262137;27;20151;-58
2021/06/11 06:23:37;;;;;;;54.57;33.67;;;18.90;99.90;;;;;;5258963;27;20413;-61
2021/06/11 06:26:04;;;;;;;49.43;30.83;;;19.00;99.90;;;;;;5257458;27;20102;-59
2021/06/11 06:28:31;;;;;;;50.83;30.80;;;19.10;99.90;;;;;;5260311;27;20123;-62
2021/06/11 06:30:57;;;;;;;41.37;27.97;;;19.20;99.90;;;;;;5259762;27;20107;-59
2021/06/11 06:33:26;;;;;;;45.43;30.30;;;19.20;99.90;;;;;;5257272;27;20161;-60
2021/06/11 06:35:53;;;;;;;39.73;27.70;;;19.20;99.90;;;;;;5259756;27;20108;-60
2021/06/11 06:38:19;;;;;;;39.10;27.17;;;19.20;99.90;;;;;;5259552;27;20289;-60
2021/06/11 06:40:48;;;;;;;34.87;25.63;;;19.20;99.90;;;;;;5258101;27;20158;-61
2021/06/11 06:43:15;;;;;;;36.70;25.57;;;18.80;99.90;;;;;;5260909;27;20111;-60
2021/06/11 06:45:41;;;;;;;35.30;25.80;;;19.00;99.90;;;;;;5257701;27;20111;-60
2021/06/11 06:48:08;;;;;;;31.43;24.07;;;19.10;99.90;;;;;;5257055;27;20153;-59
2021/06/11 06:50:36;;;;;;;34.70;25.90;;;19.30;99.90;;;;;;5259007;27;20111;-60
2021/06/11 06:53:05;;;;;;;34.03;26.47;;;19.60;99.90;;;;;;5261265;27;20398;-59
2021/06/11 06:55:31;;;;;;;34.93;27.00;;;19.80;99.90;;;;;;5259080;27;20117;-63
2021/06/11 06:57:57;;;;;;;31.33;24.13;;;20.00;99.90;;;;;;5257749;27;20126;-60
2021/06/11 07:00:24;;;;;;;26.70;21.37;;;20.10;99.90;;;;;;5260653;27;20122;-60
2021/06/11 07:02:50;;;;;;;32.13;23.97;;;20.10;99.90;;;;;;5257181;27;20534;-62
2021/06/11 07:05:16;;;;;;;29.50;24.00;;;20.00;99.90;;;;;;5260224;27;20118;-61
2021/06/11 07:07:44;;;;;;;28.87;23.43;;;20.00;99.90;;;;;;5258756;27;20154;-59
2021/06/11 07:10:11;;;;;;;29.13;23.37;;;20.10;99.90;;;;;;5259766;27;20546;-61
2021/06/11 07:12:42;;;;;;;31.67;25.57;;;20.40;99.90;;;;;;5257014;27;20119;-60
2021/06/11 07:15:09;;;;;;;33.23;25.70;;;20.60;99.90;;;;;;5256842;27;20494;-59
2021/06/11 07:17:36;;;;;;;32.57;25.80;;;20.50;99.90;;;;;;5260145;27;20108;-60
2021/06/11 07:20:03;;;;;;;33.47;23.17;;;20.60;99.90;;;;;;5259267;27;20107;-59
2021/06/11 07:22:29;;;;;;;30.77;24.23;;;20.60;99.90;;;;;;5260949;27;20466;-59
2021/06/11 07:25:01;;;;;;;26.77;21.70;;;20.90;99.90;;;;;;5258476;27;20125;-60
2021/06/11 07:27:32;;;;;;;28.50;23.83;;;21.30;99.90;;;;;;5258182;27;20108;-60
2021/06/11 07:30:05;;;;;;;26.47;22.13;;;21.30;99.90;;;;;;5260078;27;20139;-59
2021/06/11 07:32:31;;;;;;;28.57;24.33;;;21.60;99.90;;;;;;5262061;27;20563;-60
2021/06/11 07:34:58;;;;;;;26.63;22.60;;;21.40;99.90;;;;;;5262577;27;20452;-60
2021/06/11 07:37:24;;;;;;;28.40;22.57;;;21.40;99.90;;;;;;5262595;27;20145;-60
2021/06/11 07:39:51;;;;;;;31.07;25.87;;;21.60;99.90;;;;;;5261397;27;20108;-60
2021/06/11 07:42:19;;;;;;;28.40;24.70;;;21.60;99.90;;;;;;5260635;27;20108;-63
2021/06/11 07:44:45;;;;;;;29.47;23.43;;;21.40;99.90;;;;;;5260581;27;20523;-61
2021/06/11 07:47:11;;;;;;;27.57;23.60;;;21.10;99.90;;;;;;5262997;27;20530;-59
2021/06/11 07:49:38;;;;;;;28.47;23.80;;;21.00;99.90;;;;;;5260406;27;20134;-62
2021/06/11 07:52:06;;;;;;;26.57;22.97;;;21.10;99.90;;;;;;5260254;27;20107;-63
2021/06/11 07:54:36;;;;;;;30.93;26.20;;;21.30;99.90;;;;;;5261469;27;20112;-58
2021/06/11 07:57:03;;;;;;;31.77;25.67;;;21.40;99.90;;;;;;5260328;27;20118;-60
2021/06/11 07:59:30;;;;;;;32.50;27.87;;;22.00;99.90;;;;;;5260234;27;20138;-63
2021/06/11 08:01:57;;;;;;;32.33;25.90;;;22.10;99.90;;;;;;5260337;27;20451;-59
2021/06/11 08:04:23;;;;;;;34.47;27.10;;;22.20;99.90;;;;;;5260502;27;20511;-62
2021/06/11 08:06:49;;;;;;;33.13;27.93;;;22.30;99.90;;;;;;5260478;27;20115;-60
2021/06/11 08:09:16;;;;;;;33.60;26.77;;;22.90;99.90;;;;;;5260179;27;20135;-60
2021/06/11 08:11:42;;;;;;;36.47;29.27;;;23.60;99.90;;;;;;5260441;27;20521;-60
2021/06/11 08:14:09;;;;;;;34.77;27.40;;;23.50;99.90;;;;;;5261242;27;20124;-60
2021/06/11 08:16:37;;;;;;;36.93;28.87;;;23.50;99.90;;;;;;5260624;27;20107;-60
2021/06/11 08:19:03;;;;;;;38.90;30.00;;;22.90;99.90;;;;;;5260970;27;20118;-60
2021/06/11 08:21:30;;;;;;;40.10;31.77;;;22.70;99.90;;;;;;5260410;27;20125;-60
2021/06/11 08:23:56;;;;;;;42.33;33.30;;;22.50;99.90;;;;;;5261953;27;20107;-60
2021/06/11 08:26:26;;;;;;;37.47;31.37;;;22.20;99.90;;;;;;5260545;27;20129;-62
2021/06/11 08:28:52;;;;;;;33.33;29.47;;;22.40;99.90;;;;;;5260558;27;20448;-61
2021/06/11 08:31:23;;;;;;;42.53;33.30;;;22.50;99.90;;;;;;5262706;27;20154;-60
2021/06/11 08:33:51;;;;;;;41.23;32.07;;;22.40;99.90;;;;;;5263729;27;20576;-61
2021/06/11 08:36:18;;;;;;;48.77;38.43;;;22.40;99.90;;;;;;5262440;27;20126;-61
2021/06/11 08:38:47;;;;;;;48.67;38.67;;;22.50;99.90;;;;;;5261587;27;20550;-62
2021/06/11 08:41:14;;;;;;;48.27;38.13;;;22.80;99.90;;;;;;5262166;27;20122;-61
2021/06/11 08:43:41;;;;;;;43.80;37.00;;;22.90;99.90;;;;;;5264193;27;20130;-62
2021/06/11 08:46:10;;;;;;;44.57;36.20;;;23.40;99.90;;;;;;5261939;27;20107;-63
2021/06/11 08:48:36;;;;;;;42.83;34.70;;;23.80;99.90;;;;;;5261614;27;20141;-64
2021/06/11 08:51:04;;;;;;;41.17;33.87;;;25.10;98.90;;;;;;5261820;27;20111;-61
2021/06/11 08:53:31;;;;;;;44.40;34.00;;;25.20;97.60;;;;;;5263579;27;20137;-64
2021/06/11 08:55:57;;;;;;;39.80;34.50;;;25.10;97.70;;;;;;5262027;27;20138;-61
2021/06/11 08:58:23;;;;;;;37.03;31.83;;;25.70;97.00;;;;;;5261785;27;20107;-62
2021/06/11 09:00:50;;;;;;;41.15;33.40;;;25.90;96.20;;;;;;5262285;27;20123;-61
2021/06/11 09:03:20;;;;;;;38.60;32.40;;;25.60;96.30;;;;;;5263039;27;20108;-61
2021/06/11 09:05:48;;;;;;;39.33;33.15;;;25.20;96.60;;;;;;5263066;27;20457;-61
2021/06/11 09:08:18;;;;;;;42.73;33.00;;;25.50;96.70;;;;;;5261978;27;20133;-60
2021/06/11 09:10:46;;;;;;;34.65;30.00;;;26.00;97.10;;;;;;5263956;27;20165;-66
2021/06/11 09:13:22;;;;;;;33.80;27.92;;;29.10;93.10;;;;;;5262592;27;20126;-61
2021/06/11 09:15:48;;;;;;;35.92;30.50;;;29.80;90.30;;;;;;5261643;27;20118;-61
2021/06/11 09:18:21;;;;;;;30.83;27.62;;;29.50;89.20;;;;;;5261742;27;20450;-61
2021/06/11 09:20:48;;;;;;;34.33;29.27;;;29.00;89.60;;;;;;5261306;27;20160;-62
2021/06/11 09:23:18;;;;;;;29.02;25.58;;;28.60;90.40;;;;;;5263371;27;20420;-62
2021/06/11 09:25:48;;;;;;;31.20;27.80;;;28.90;90.60;;;;;;5261607;27;20166;-62
2021/06/11 09:28:16;;;;;;;27.80;24.90;;;28.90;90.00;;;;;;5261298;27;20115;-62
2021/06/11 09:30:54;;;;;;;30.77;26.62;;;30.90;88.40;;;;;;5261548;27;20115;-61
2021/06/11 09:33:22;;;;;;;31.50;26.70;;;34.30;76.00;;;;;;5261539;27;20142;-60
2021/06/11 09:35:53;;;;;;;27.60;24.63;;;35.90;72.20;;;;;;5263474;27;20131;-61
2021/06/11 09:38:27;;;;;;;26.65;23.85;;;35.80;66.30;;;;;;5261589;27;20527;-60
2021/06/11 09:41:07;;;;;;;25.52;22.85;;;36.60;63.70;;;;;;5263010;27;20420;-60
2021/06/11 09:43:34;;;;;;;27.25;24.35;;;39.70;59.30;;;;;;5261834;27;20448;-63
2021/06/11 09:46:04;;;;;;;29.73;26.52;;;41.20;51.60;;;;;;5261044;27;20465;-62
2021/06/11 09:48:42;;;;;;;27.62;24.80;;;38.00;53.50;;;;;;5261334;27;20145;-61
2021/06/11 09:51:13;;;;;;;31.23;25.40;;;35.10;57.90;;;;;;5261667;27;20534;-62
2021/06/11 09:53:41;;;;;;;24.55;21.95;;;32.60;62.70;;;;;;5262201;27;20154;-60
2021/06/11 09:56:18;;;;;;;30.25;26.98;;;30.90;68.30;;;;;;5263350;27;20107;-60
2021/06/11 09:58:45;;;;;;;27.90;25.00;;;30.10;71.70;;;;;;5263738;27;20126;-61
2021/06/11 10:01:12;;;;;;;23.95;21.40;;;29.60;74.60;;;;;;5261194;27;20107;-61
2021/06/11 10:03:40;;;;;;;27.23;24.33;;;29.40;77.50;;;;;;5263751;27;20156;-61
2021/06/11 10:06:08;;;;;;;27.92;24.98;;;29.50;77.40;;;;;;5261474;27;20122;-64
2021/06/11 10:08:39;;;;;;;25.45;22.77;;;29.30;77.80;;;;;;5261336;27;20107;-61
2021/06/11 10:11:09;;;;;;;29.12;23.92;;;28.80;81.10;;;;;;5261161;27;20507;-60
2021/06/11 10:13:36;;;;;;;23.08;20.62;;;28.40;82.70;;;;;;5262097;27;20456;-60
2021/06/11 10:16:04;;;;;;;26.98;23.65;;;28.70;84.20;;;;;;5261343;27;20103;-62
2021/06/11 10:18:31;;;;;;;29.63;25.77;;;28.50;83.10;;;;;;5261480;27;20135;-61
2021/06/11 10:20:58;;;;;;;28.38;24.10;;;28.10;84.10;;;;;;5260914;27;20103;-61
2021/06/11 10:23:26;;;;;;;27.92;24.92;;;28.30;85.60;;;;;;5263056;27;20129;-60
2021/06/11 10:25:54;;;;;;;24.30;21.08;;;27.90;85.70;;;;;;5260993;27;20111;-61
2021/06/11 10:28:25;;;;;;;26.17;23.35;;;27.40;87.80;;;;;;5260488;27;20216;-63
2021/06/11 10:30:56;;;;;;;26.42;23.50;;;27.30;88.40;;;;;;5260228;27;20120;-61
2021/06/11 10:33:51;;;;;;;27.50;24.33;;;27.40;88.60;;;;;;5261295;27;20141;-61
2021/06/11 10:36:34;;;;;;;24.58;21.90;;;27.40;89.50;;;;;;5260765;27;20122;-61
2021/06/11 10:39:02;;;;;;;25.40;22.87;;;27.20;90.00;;;;;;5258818;27;20511;-60
2021/06/11 10:41:49;;;;;;;23.10;20.77;;;27.10;88.90;;;;;;5261715;27;20112;-61
2021/06/11 10:44:38;;;;;;;23.35;20.85;;;27.00;90.10;;;;;;5259528;27;20127;-63
2021/06/11 10:47:23;;;;;;;26.67;23.55;;;26.90;90.60;;;;;;5263252;27;20129;-61
2021/06/11 10:50:13;;;;;;;26.50;23.77;;;26.20;91.70;;;;;;5263175;27;20129;-61
2021/06/11 10:52:46;;;;;;;25.75;23.15;;;26.10;92.20;;;;;;5260730;27;20126;-62
2021/06/11 10:55:50;;;;;;;23.73;21.42;;;26.00;92.20;;;;;;5260852;27;20107;-61
2021/06/11 10:58:31;;;;;;;25.05;22.52;;;26.10;92.60;;;;;;5262526;27;20507;-62
2021/06/11 11:01:19;;;;;;;27.77;24.87;;;26.30;92.20;;;;;;5263137;27;20170;-63
2021/06/11 11:03:46;;;;;;;30.65;27.35;;;26.40;91.50;;;;;;5260992;27;20528;-63
2021/06/11 11:06:28;;;;;;;27.77;24.98;;;26.40;91.90;;;;;;5261037;27;20106;-60
2021/06/11 11:08:59;;;;;;;24.42;21.90;;;25.90;92.40;;;;;;5260248;27;20422;-62
2021/06/11 11:11:48;;;;;;;24.50;21.92;;;26.00;92.90;;;;;;5263512;27;20104;-61
2021/06/11 11:14:37;;;;;;;22.15;19.95;;;26.00;92.70;;;;;;5260936;27;20122;-60
2021/06/11 11:17:10;;;;;;;22.20;20.08;;;26.20;93.20;;;;;;5263183;27;20166;-61
2021/06/11 11:19:56;;;;;;;20.10;18.02;;;26.50;92.80;;;;;;5262598;27;20401;-61
2021/06/11 11:22:29;;;;;;;20.88;18.80;;;26.30;92.80;;;;;;5262352;27;20112;-61
2021/06/11 11:24:56;;;;;;;27.55;24.60;;;26.40;92.60;;;;;;5260218;27;20115;-64
2021/06/11 11:27:23;;;;;;;21.05;18.95;;;26.50;92.20;;;;;;5260851;27;20103;-61
2021/06/11 11:29:51;;;;;;;21.15;18.80;;;26.50;92.10;;;;;;5260812;27;20106;-60
2021/06/11 11:32:19;;;;;;;25.83;23.02;;;26.40;91.60;;;;;;5262214;27;20143;-64
2021/06/11 11:34:46;;;;;;;24.63;22.13;;;26.30;92.60;;;;;;5260804;27;20516;-62
2021/06/11 11:37:12;;;;;;;23.77;21.37;;;26.40;92.80;;;;;;5260752;27;20577;-61
2021/06/11 11:39:45;;;;;;;25.37;22.80;;;26.80;92.30;;;;;;5260480;27;20116;-61
2021/06/11 11:42:12;;;;;;;25.17;22.60;;;26.70;91.80;;;;;;5260589;27;20103;-63
2021/06/11 11:44:39;;;;;;;24.27;21.83;;;26.90;92.00;;;;;;5260620;27;20161;-61
2021/06/11 11:47:06;;;;;;;25.35;22.87;;;26.80;92.00;;;;;;5260520;27;20107;-63
2021/06/11 11:49:33;;;;;;;23.27;20.88;;;26.60;91.80;;;;;;5261230;27;20134;-61
2021/06/11 11:52:04;;;;;;;20.65;18.65;;;26.80;91.90;;;;;;5260895;27;20103;-62
2021/06/11 11:54:32;;;;;;;19.80;17.87;;;26.70;91.60;;;;;;5261440;27;20108;-65
2021/06/11 11:57:02;;;;;;;21.17;18.90;;;26.70;92.30;;;;;;5263167;27;20121;-60
2021/06/11 11:59:28;;;;;;;21.48;19.40;;;26.70;92.50;;;;;;5261066;27;20120;-61
2021/06/11 12:01:57;;;;;;;20.40;18.33;;;26.70;91.50;;;;;;5260884;27;20123;-63
2021/06/11 12:04:24;;;;;;;16.98;15.43;;;26.60;92.20;;;;;;5263289;27;20108;-61
2021/06/11 12:06:52;;;;;;;19.17;17.27;;;27.20;91.70;;;;;;5261822;27;20179;-62
2021/06/11 12:09:18;;;;;;;20.83;18.75;;;27.10;91.40;;;;;;5262097;27;20126;-60
2021/06/11 12:11:45;;;;;;;21.75;19.45;;;27.10;91.00;;;;;;5262127;27;20577;-60
2021/06/11 12:14:11;;;;;;;16.48;14.98;;;26.90;90.90;;;;;;5262014;27;20146;-60
2021/06/11 12:16:38;;;;;;;20.40;18.30;;;27.10;91.20;;;;;;5261796;27;20127;-62
2021/06/11 12:19:05;;;;;;;20.20;18.27;;;27.50;90.60;;;;;;5262734;27;20139;-62
2021/06/11 12:21:34;;;;;;;20.73;18.55;;;27.30;90.70;;;;;;5261124;27;20193;-64
2021/06/11 12:24:03;;;;;;;24.30;21.98;;;26.70;91.40;;;;;;5261395;27;20189;-63
2021/06/11 12:26:29;;;;;;;20.37;18.45;;;26.30;91.80;;;;;;5262054;27;20107;-60
2021/06/11 12:28:56;;;;;;;21.70;18.48;;;26.30;92.60;;;;;;5261920;27;20532;-61
2021/06/11 12:31:23;;;;;;;21.37;19.27;;;26.40;92.50;;;;;;5263304;27;20147;-60
2021/06/11 12:33:50;;;;;;;22.83;20.52;;;26.20;92.30;;;;;;5242583;27;20151;-59
2021/06/11 12:36:16;;;;;;;22.95;20.55;;;26.20;91.50;;;;;;5261753;27;20149;-65
2021/06/11 12:38:42;;;;;;;23.90;21.48;;;26.70;91.60;;;;;;5261752;27;20122;-62
2021/06/11 12:41:14;;;;;;;26.02;23.42;;;26.70;91.30;;;;;;5262525;27;20107;-62
2021/06/11 12:46:26;;;;;;;27.65;25.10;;;26.50;92.20;;;;;;5263596;27;20118;-64
2021/06/11 12:48:53;;;;;;;27.37;24.75;;;26.50;91.30;;;;;;5261760;27;20107;-62
2021/06/11 12:51:22;;;;;;;31.48;28.52;;;26.30;91.50;;;;;;5261893;27;20118;-60
2021/06/11 12:53:48;;;;;;;31.02;28.12;;;26.20;92.00;;;;;;5262139;27;20128;-61
2021/06/11 12:56:17;;;;;;;30.08;27.15;;;26.30;92.40;;;;;;5261510;27;20121;-63
2021/06/11 12:58:44;;;;;;;35.47;32.08;;;26.50;91.90;;;;;;5263590;27;20125;-64
2021/06/11 13:01:11;;;;;;;33.70;30.30;;;26.80;91.70;;;;;;5263914;27;20532;-63
2021/06/11 13:03:37;;;;;;;30.25;27.52;;;26.60;91.40;;;;;;5263851;27;20107;-62
2021/06/11 13:06:04;;;;;;;30.60;27.55;;;26.80;92.00;;;;;;5263565;27;20446;-60
2021/06/11 13:08:30;;;;;;;34.38;31.02;;;26.70;91.00;;;;;;5261745;27;20515;-63
2021/06/11 13:10:56;;;;;;;33.20;30.17;;;26.80;91.60;;;;;;5261940;27;20107;-64
2021/06/11 13:13:24;;;;;;;32.95;29.50;;;27.00;91.30;;;;;;5263987;27;20126;-61
2021/06/11 13:15:51;;;;;;;33.78;30.50;;;27.20;91.20;;;;;;5261298;27;20134;-60
2021/06/11 13:18:17;;;;;;;30.20;27.33;;;27.20;90.30;;;;;;5261532;27;20409;-61
2021/06/11 13:20:44;;;;;;;29.55;26.85;;;27.20;90.50;;;;;;5263711;27;20418;-62
2021/06/11 13:23:10;;;;;;;24.00;21.80;;;27.40;90.30;;;;;;5263059;27;20432;-62
2021/06/11 13:25:38;;;;;;;28.42;25.60;;;27.50;90.30;;;;;;5261102;27;20161;-60
2021/06/11 13:28:05;;;;;;;29.75;27.02;;;27.50;90.30;;;;;;5262843;27;20475;-64
2021/06/11 13:30:33;;;;;;;31.48;28.42;;;27.50;89.60;;;;;;5261610;27;20135;-59
2021/06/11 13:32:59;;;;;;;30.83;27.60;;;26.90;90.00;;;;;;5262532;27;20467;-61
2021/06/11 13:35:26;;;;;;;29.80;27.10;;;26.60;91.10;;;;;;5261389;27;20106;-61
2021/06/11 13:37:53;;;;;;;28.60;26.08;;;26.50;91.10;;;;;;5261428;27;20107;-61
2021/06/11 13:40:19;;;;;;;28.92;26.12;;;26.40;91.50;;;;;;5260241;27;20107;-63
2021/06/11 13:42:47;;;;;;;24.30;22.05;;;26.50;91.80;;;;;;5261611;27;20112;-61
2021/06/11 13:45:15;;;;;;;23.55;21.35;;;26.50;91.70;;;;;;5263709;27;20107;-64
2021/06/11 13:47:49;;;;;;;25.50;23.10;;;26.60;91.50;;;;;;5260310;27;20108;-60
2021/06/11 13:50:18;;;;;;;27.77;24.90;;;26.50;91.70;;;;;;5260858;27;20173;-62
2021/06/11 13:52:45;;;;;;;22.37;20.23;;;26.40;92.10;;;;;;5259069;27;20103;-61
2021/06/11 13:55:16;;;;;;;17.75;15.95;;;26.30;91.40;;;;;;5257592;27;20142;-64
2021/06/11 13:57:45;;;;;;;22.60;20.40;;;26.30;91.50;;;;;;5257408;27;20214;-60
2021/06/11 14:00:15;;;;;;;20.10;18.10;;;26.30;91.20;;;;;;5260552;27;20123;-62
2021/06/11 14:02:50;;;;;;;21.02;18.92;;;26.30;91.10;;;;;;5258223;27;20127;-62
2021/06/11 14:05:17;;;;;;;17.15;15.55;;;26.40;91.00;;;;;;5259831;27;20107;-62
2021/06/11 14:07:43;;;;;;;18.80;17.10;;;26.30;91.00;;;;;;5258984;27;20115;-62
2021/06/11 14:10:11;;;;;;;23.20;20.95;;;26.30;91.60;;;;;;5258962;27;20137;-59